sensor_id;sensor_type;location;lat;lon;timestamp;P1;durP1;ratioP1;P2;durP2;ratioP2
71941;SDS011;59997;53.300;-6.260;2023-04-25T00:02:11;13.50;;;4.78;;
71941;SDS011;59997;53.300;-6.260;2023-04-25T00:04:37;14.93;;;5.67;;
71941;SDS011;59997;53.300;-6.260;2023-04-25T00:07:03;19.45;;;6.78;;
71941;SDS011;59997;53.300;-6.260;2023-04-25T00:09:29;13.07;;;4.75;;
71941;SDS011;59997;53.300;-6.260;2023-04-25T00:11:54;15.05;;;4.60;;
71941;SDS011;59997;53.300;-6.260;2023-04-25T00:14:20;11.93;;;4.57;;
71941;SDS011;59997;53.300;-6.260;2023-04-25T00:16:46;12.40;;;3.13;;
71941;SDS011;59997;53.300;-6.260;2023-04-25T00:19:13;9.00;;;2.30;;
71941;SDS011;59997;53.300;-6.260;2023-04-25T00:21:38;9.77;;;2.20;;
71941;SDS011;59997;53.300;-6.260;2023-04-25T00:24:06;6.40;;;2.15;;
71941;SDS011;59997;53.300;-6.260;2023-04-25T00:26:33;8.53;;;1.90;;
71941;SDS011;59997;53.300;-6.260;2023-04-25T00:29:00;8.95;;;2.10;;
71941;SDS011;59997;53.300;-6.260;2023-04-25T00:31:25;9.27;;;2.40;;
71941;SDS011;59997;53.300;-6.260;2023-04-25T00:33:51;8.38;;;1.80;;
71941;SDS011;59997;53.300;-6.260;2023-04-25T00:36:16;7.07;;;2.10;;
71941;SDS011;59997;53.300;-6.260;2023-04-25T00:38:43;7.43;;;1.90;;
71941;SDS011;59997;53.300;-6.260;2023-04-25T00:41:08;6.60;;;1.87;;
71941;SDS011;59997;53.300;-6.260;2023-04-25T00:43:34;6.40;;;1.70;;
71941;SDS011;59997;53.300;-6.260;2023-04-25T00:46:01;7.03;;;1.95;;
71941;SDS011;59997;53.300;-6.260;2023-04-25T00:48:27;9.33;;;2.30;;
71941;SDS011;59997;53.300;-6.260;2023-04-25T00:50:53;7.32;;;2.03;;
71941;SDS011;59997;53.300;-6.260;2023-04-25T00:53:23;10.23;;;2.60;;
71941;SDS011;59997;53.300;-6.260;2023-04-25T00:55:50;9.90;;;2.40;;
71941;SDS011;59997;53.300;-6.260;2023-04-25T00:58:19;13.10;;;2.88;;
71941;SDS011;59997;53.300;-6.260;2023-04-25T01:00:46;9.73;;;2.35;;
71941;SDS011;59997;53.300;-6.260;2023-04-25T01:03:16;10.82;;;2.85;;
71941;SDS011;59997;53.300;-6.260;2023-04-25T01:05:44;7.97;;;2.45;;
71941;SDS011;59997;53.300;-6.260;2023-04-25T01:08:12;10.35;;;2.83;;
71941;SDS011;59997;53.300;-6.260;2023-04-25T01:10:37;7.65;;;2.38;;
71941;SDS011;59997;53.300;-6.260;2023-04-25T01:13:03;10.17;;;2.70;;
71941;SDS011;59997;53.300;-6.260;2023-04-25T01:15:28;10.80;;;3.17;;
71941;SDS011;59997;53.300;-6.260;2023-04-25T01:17:54;10.23;;;3.03;;
71941;SDS011;59997;53.300;-6.260;2023-04-25T01:20:20;12.85;;;2.90;;
71941;SDS011;59997;53.300;-6.260;2023-04-25T01:22:51;8.13;;;2.83;;
71941;SDS011;59997;53.300;-6.260;2023-04-25T01:25:18;7.83;;;2.77;;
71941;SDS011;59997;53.300;-6.260;2023-04-25T01:27:43;10.98;;;3.28;;
71941;SDS011;59997;53.300;-6.260;2023-04-25T01:30:10;10.63;;;2.83;;
71941;SDS011;59997;53.300;-6.260;2023-04-25T01:32:36;13.10;;;3.10;;
71941;SDS011;59997;53.300;-6.260;2023-04-25T01:35:05;9.87;;;2.70;;
71941;SDS011;59997;53.300;-6.260;2023-04-25T01:37:35;10.95;;;2.90;;
71941;SDS011;59997;53.300;-6.260;2023-04-25T01:40:08;8.10;;;2.42;;
71941;SDS011;59997;53.300;-6.260;2023-04-25T01:42:37;8.88;;;2.70;;
71941;SDS011;59997;53.300;-6.260;2023-04-25T01:45:04;11.82;;;2.92;;
71941;SDS011;59997;53.300;-6.260;2023-04-25T01:47:30;7.77;;;2.63;;
71941;SDS011;59997;53.300;-6.260;2023-04-25T01:49:56;8.90;;;2.42;;
71941;SDS011;59997;53.300;-6.260;2023-04-25T01:52:21;10.90;;;2.80;;
71941;SDS011;59997;53.300;-6.260;2023-04-25T01:54:47;10.87;;;3.23;;
71941;SDS011;59997;53.300;-6.260;2023-04-25T01:57:13;9.93;;;2.90;;
71941;SDS011;59997;53.300;-6.260;2023-04-25T01:59:39;11.15;;;3.10;;
71941;SDS011;59997;53.300;-6.260;2023-04-25T02:02:07;14.65;;;3.10;;
71941;SDS011;59997;53.300;-6.260;2023-04-25T02:04:33;10.48;;;3.25;;
71941;SDS011;59997;53.300;-6.260;2023-04-25T02:06:58;11.93;;;3.03;;
71941;SDS011;59997;53.300;-6.260;2023-04-25T02:09:24;13.30;;;3.00;;
71941;SDS011;59997;53.300;-6.260;2023-04-25T02:11:49;10.98;;;3.17;;
71941;SDS011;59997;53.300;-6.260;2023-04-25T02:14:15;9.50;;;3.00;;
71941;SDS011;59997;53.300;-6.260;2023-04-25T02:16:41;10.05;;;2.95;;
71941;SDS011;59997;53.300;-6.260;2023-04-25T02:19:09;11.85;;;3.53;;
71941;SDS011;59997;53.300;-6.260;2023-04-25T02:21:35;9.03;;;3.10;;
71941;SDS011;59997;53.300;-6.260;2023-04-25T02:24:01;12.75;;;3.55;;
71941;SDS011;59997;53.300;-6.260;2023-04-25T02:26:27;12.20;;;3.45;;
71941;SDS011;59997;53.300;-6.260;2023-04-25T02:28:52;10.70;;;2.87;;
71941;SDS011;59997;53.300;-6.260;2023-04-25T02:31:18;9.37;;;2.73;;
71941;SDS011;59997;53.300;-6.260;2023-04-25T02:33:43;12.40;;;2.95;;
71941;SDS011;59997;53.300;-6.260;2023-04-25T02:36:09;9.07;;;2.77;;
71941;SDS011;59997;53.300;-6.260;2023-04-25T02:38:35;9.80;;;2.67;;
71941;SDS011;59997;53.300;-6.260;2023-04-25T02:41:00;9.33;;;2.53;;
71941;SDS011;59997;53.300;-6.260;2023-04-25T02:43:26;7.13;;;2.33;;
71941;SDS011;59997;53.300;-6.260;2023-04-25T02:45:51;8.82;;;2.53;;
71941;SDS011;59997;53.300;-6.260;2023-04-25T02:48:17;9.83;;;2.53;;
71941;SDS011;59997;53.300;-6.260;2023-04-25T02:50:42;10.13;;;2.70;;
71941;SDS011;59997;53.300;-6.260;2023-04-25T02:53:08;9.23;;;3.05;;
71941;SDS011;59997;53.300;-6.260;2023-04-25T02:55:33;11.25;;;3.13;;
71941;SDS011;59997;53.300;-6.260;2023-04-25T02:57:58;9.40;;;2.97;;
71941;SDS011;59997;53.300;-6.260;2023-04-25T03:00:24;10.33;;;2.70;;
71941;SDS011;59997;53.300;-6.260;2023-04-25T03:02:50;9.23;;;3.13;;
71941;SDS011;59997;53.300;-6.260;2023-04-25T03:05:16;12.60;;;2.80;;
71941;SDS011;59997;53.300;-6.260;2023-04-25T03:07:42;8.02;;;2.45;;
71941;SDS011;59997;53.300;-6.260;2023-04-25T03:10:08;8.35;;;2.60;;
71941;SDS011;59997;53.300;-6.260;2023-04-25T03:12:35;11.60;;;2.83;;
71941;SDS011;59997;53.300;-6.260;2023-04-25T03:15:00;9.63;;;2.77;;
71941;SDS011;59997;53.300;-6.260;2023-04-25T03:17:26;9.73;;;2.80;;
71941;SDS011;59997;53.300;-6.260;2023-04-25T03:19:51;7.22;;;2.40;;
71941;SDS011;59997;53.300;-6.260;2023-04-25T03:22:17;9.07;;;2.03;;
71941;SDS011;59997;53.300;-6.260;2023-04-25T03:24:42;9.37;;;2.30;;
71941;SDS011;59997;53.300;-6.260;2023-04-25T03:27:08;11.70;;;2.58;;
71941;SDS011;59997;53.300;-6.260;2023-04-25T03:29:33;8.77;;;2.03;;
71941;SDS011;59997;53.300;-6.260;2023-04-25T03:31:59;7.77;;;2.07;;
71941;SDS011;59997;53.300;-6.260;2023-04-25T03:34:24;8.40;;;2.07;;
71941;SDS011;59997;53.300;-6.260;2023-04-25T03:36:51;7.60;;;2.08;;
71941;SDS011;59997;53.300;-6.260;2023-04-25T03:39:16;7.53;;;2.17;;
71941;SDS011;59997;53.300;-6.260;2023-04-25T03:41:42;6.63;;;1.90;;
71941;SDS011;59997;53.300;-6.260;2023-04-25T03:44:07;8.07;;;2.37;;
71941;SDS011;59997;53.300;-6.260;2023-04-25T03:46:33;10.70;;;1.90;;
71941;SDS011;59997;53.300;-6.260;2023-04-25T03:48:58;8.93;;;1.65;;
71941;SDS011;59997;53.300;-6.260;2023-04-25T03:51:24;6.63;;;2.00;;
71941;SDS011;59997;53.300;-6.260;2023-04-25T03:53:51;6.70;;;1.65;;
71941;SDS011;59997;53.300;-6.260;2023-04-25T03:56:16;6.45;;;1.80;;
71941;SDS011;59997;53.300;-6.260;2023-04-25T03:58:42;7.67;;;2.23;;
71941;SDS011;59997;53.300;-6.260;2023-04-25T04:01:07;14.30;;;2.53;;
71941;SDS011;59997;53.300;-6.260;2023-04-25T04:03:34;9.68;;;2.63;;
71941;SDS011;59997;53.300;-6.260;2023-04-25T04:06:01;9.02;;;2.72;;
71941;SDS011;59997;53.300;-6.260;2023-04-25T04:08:29;9.43;;;2.53;;
71941;SDS011;59997;53.300;-6.260;2023-04-25T04:10:54;6.73;;;1.73;;
71941;SDS011;59997;53.300;-6.260;2023-04-25T04:13:20;10.02;;;2.08;;
71941;SDS011;59997;53.300;-6.260;2023-04-25T04:15:45;8.18;;;2.35;;
71941;SDS011;59997;53.300;-6.260;2023-04-25T04:18:11;9.13;;;2.00;;
71941;SDS011;59997;53.300;-6.260;2023-04-25T04:20:36;8.27;;;2.10;;
71941;SDS011;59997;53.300;-6.260;2023-04-25T04:23:02;8.55;;;1.50;;
71941;SDS011;59997;53.300;-6.260;2023-04-25T04:25:28;6.13;;;1.90;;
71941;SDS011;59997;53.300;-6.260;2023-04-25T04:27:54;7.65;;;1.88;;
71941;SDS011;59997;53.300;-6.260;2023-04-25T04:30:23;12.07;;;2.00;;
71941;SDS011;59997;53.300;-6.260;2023-04-25T04:32:50;5.80;;;1.63;;
71941;SDS011;59997;53.300;-6.260;2023-04-25T04:35:16;7.47;;;1.73;;
71941;SDS011;59997;53.300;-6.260;2023-04-25T04:37:42;5.83;;;1.80;;
71941;SDS011;59997;53.300;-6.260;2023-04-25T04:40:09;8.85;;;1.95;;
71941;SDS011;59997;53.300;-6.260;2023-04-25T04:42:34;7.43;;;1.95;;
71941;SDS011;59997;53.300;-6.260;2023-04-25T04:45:01;4.88;;;1.58;;
71941;SDS011;59997;53.300;-6.260;2023-04-25T04:47:29;8.15;;;1.70;;
71941;SDS011;59997;53.300;-6.260;2023-04-25T04:49:56;10.40;;;1.93;;
71941;SDS011;59997;53.300;-6.260;2023-04-25T04:52:22;9.38;;;1.73;;
71941;SDS011;59997;53.300;-6.260;2023-04-25T04:54:47;9.45;;;2.53;;
71941;SDS011;59997;53.300;-6.260;2023-04-25T04:57:13;8.60;;;2.05;;
71941;SDS011;59997;53.300;-6.260;2023-04-25T04:59:38;8.30;;;2.67;;
71941;SDS011;59997;53.300;-6.260;2023-04-25T05:02:04;11.20;;;2.20;;
71941;SDS011;59997;53.300;-6.260;2023-04-25T05:04:29;11.25;;;2.00;;
71941;SDS011;59997;53.300;-6.260;2023-04-25T05:06:55;8.20;;;2.27;;
71941;SDS011;59997;53.300;-6.260;2023-04-25T05:09:20;7.00;;;2.27;;
71941;SDS011;59997;53.300;-6.260;2023-04-25T05:11:50;9.65;;;2.35;;
71941;SDS011;59997;53.300;-6.260;2023-04-25T05:14:16;12.63;;;3.20;;
71941;SDS011;59997;53.300;-6.260;2023-04-25T05:16:42;14.40;;;2.97;;
71941;SDS011;59997;53.300;-6.260;2023-04-25T05:19:08;10.13;;;2.30;;
71941;SDS011;59997;53.300;-6.260;2023-04-25T05:21:33;7.33;;;2.17;;
71941;SDS011;59997;53.300;-6.260;2023-04-25T05:23:59;9.65;;;2.40;;
71941;SDS011;59997;53.300;-6.260;2023-04-25T05:26:25;7.70;;;2.43;;
71941;SDS011;59997;53.300;-6.260;2023-04-25T05:28:51;11.30;;;2.50;;
71941;SDS011;59997;53.300;-6.260;2023-04-25T05:31:16;12.57;;;2.60;;
71941;SDS011;59997;53.300;-6.260;2023-04-25T05:33:42;14.77;;;2.10;;
71941;SDS011;59997;53.300;-6.260;2023-04-25T05:36:07;11.30;;;2.45;;
71941;SDS011;59997;53.300;-6.260;2023-04-25T05:38:33;9.60;;;2.65;;
71941;SDS011;59997;53.300;-6.260;2023-04-25T05:40:58;8.57;;;2.50;;
71941;SDS011;59997;53.300;-6.260;2023-04-25T05:43:24;10.88;;;2.42;;
71941;SDS011;59997;53.300;-6.260;2023-04-25T05:45:49;9.60;;;2.47;;
71941;SDS011;59997;53.300;-6.260;2023-04-25T05:48:15;8.00;;;2.40;;
71941;SDS011;59997;53.300;-6.260;2023-04-25T05:50:40;8.02;;;2.60;;
71941;SDS011;59997;53.300;-6.260;2023-04-25T05:53:06;8.30;;;2.07;;
71941;SDS011;59997;53.300;-6.260;2023-04-25T05:55:31;9.97;;;2.80;;
71941;SDS011;59997;53.300;-6.260;2023-04-25T05:57:57;10.63;;;3.03;;
71941;SDS011;59997;53.300;-6.260;2023-04-25T06:00:22;13.52;;;2.90;;
71941;SDS011;59997;53.300;-6.260;2023-04-25T06:02:48;7.32;;;2.90;;
71941;SDS011;59997;53.300;-6.260;2023-04-25T06:05:14;12.83;;;3.17;;
71941;SDS011;59997;53.300;-6.260;2023-04-25T06:07:40;10.97;;;2.80;;
71941;SDS011;59997;53.300;-6.260;2023-04-25T06:10:05;10.60;;;2.90;;
71941;SDS011;59997;53.300;-6.260;2023-04-25T06:12:34;9.17;;;2.73;;
71941;SDS011;59997;53.300;-6.260;2023-04-25T06:15:00;10.80;;;3.00;;
71941;SDS011;59997;53.300;-6.260;2023-04-25T06:17:26;10.60;;;3.25;;
71941;SDS011;59997;53.300;-6.260;2023-04-25T06:19:51;13.97;;;3.27;;
71941;SDS011;59997;53.300;-6.260;2023-04-25T06:22:17;9.90;;;3.33;;
71941;SDS011;59997;53.300;-6.260;2023-04-25T06:24:42;10.82;;;3.13;;
71941;SDS011;59997;53.300;-6.260;2023-04-25T06:27:08;13.27;;;3.73;;
71941;SDS011;59997;53.300;-6.260;2023-04-25T06:29:33;11.97;;;3.70;;
71941;SDS011;59997;53.300;-6.260;2023-04-25T06:31:59;10.63;;;3.10;;
71941;SDS011;59997;53.300;-6.260;2023-04-25T06:34:24;9.93;;;3.27;;
71941;SDS011;59997;53.300;-6.260;2023-04-25T06:36:50;10.87;;;3.43;;
71941;SDS011;59997;53.300;-6.260;2023-04-25T06:39:15;13.00;;;3.42;;
71941;SDS011;59997;53.300;-6.260;2023-04-25T06:41:41;12.40;;;3.03;;
71941;SDS011;59997;53.300;-6.260;2023-04-25T06:44:06;9.00;;;3.67;;
71941;SDS011;59997;53.300;-6.260;2023-04-25T06:46:33;9.32;;;3.50;;
71941;SDS011;59997;53.300;-6.260;2023-04-25T06:48:59;12.73;;;3.42;;
71941;SDS011;59997;53.300;-6.260;2023-04-25T06:51:24;10.47;;;3.70;;
71941;SDS011;59997;53.300;-6.260;2023-04-25T06:53:53;16.08;;;3.40;;
71941;SDS011;59997;53.300;-6.260;2023-04-25T06:56:18;10.77;;;4.10;;
71941;SDS011;59997;53.300;-6.260;2023-04-25T06:58:44;12.93;;;3.47;;
71941;SDS011;59997;53.300;-6.260;2023-04-25T07:01:09;14.03;;;4.00;;
71941;SDS011;59997;53.300;-6.260;2023-04-25T07:03:35;14.90;;;4.03;;
71941;SDS011;59997;53.300;-6.260;2023-04-25T07:06:02;10.77;;;4.07;;
71941;SDS011;59997;53.300;-6.260;2023-04-25T07:08:28;14.23;;;4.43;;
71941;SDS011;59997;53.300;-6.260;2023-04-25T07:10:54;16.23;;;4.50;;
71941;SDS011;59997;53.300;-6.260;2023-04-25T07:13:19;11.80;;;4.30;;
71941;SDS011;59997;53.300;-6.260;2023-04-25T07:15:45;11.60;;;3.97;;
71941;SDS011;59997;53.300;-6.260;2023-04-25T07:18:10;12.75;;;4.10;;
71941;SDS011;59997;53.300;-6.260;2023-04-25T07:20:36;12.98;;;4.03;;
71941;SDS011;59997;53.300;-6.260;2023-04-25T07:23:01;14.43;;;3.90;;
71941;SDS011;59997;53.300;-6.260;2023-04-25T07:25:27;11.30;;;4.40;;
71941;SDS011;59997;53.300;-6.260;2023-04-25T07:27:52;11.40;;;3.65;;
71941;SDS011;59997;53.300;-6.260;2023-04-25T07:30:18;14.60;;;4.20;;
71941;SDS011;59997;53.300;-6.260;2023-04-25T07:32:43;13.87;;;4.60;;
71941;SDS011;59997;53.300;-6.260;2023-04-25T07:35:08;14.35;;;4.05;;
71941;SDS011;59997;53.300;-6.260;2023-04-25T07:37:35;23.77;;;4.43;;
71941;SDS011;59997;53.300;-6.260;2023-04-25T07:40:01;17.45;;;5.03;;
71941;SDS011;59997;53.300;-6.260;2023-04-25T07:42:30;16.23;;;4.40;;
71941;SDS011;59997;53.300;-6.260;2023-04-25T07:44:55;20.98;;;5.45;;
71941;SDS011;59997;53.300;-6.260;2023-04-25T07:47:21;19.97;;;4.77;;
71941;SDS011;59997;53.300;-6.260;2023-04-25T07:49:46;17.00;;;4.70;;
71941;SDS011;59997;53.300;-6.260;2023-04-25T07:52:12;9.57;;;3.90;;
71941;SDS011;59997;53.300;-6.260;2023-04-25T07:54:38;11.67;;;3.93;;
71941;SDS011;59997;53.300;-6.260;2023-04-25T07:57:03;12.52;;;4.25;;
71941;SDS011;59997;53.300;-6.260;2023-04-25T07:59:31;11.37;;;3.90;;
71941;SDS011;59997;53.300;-6.260;2023-04-25T08:01:57;9.70;;;3.75;;
71941;SDS011;59997;53.300;-6.260;2023-04-25T08:04:22;11.63;;;3.73;;
71941;SDS011;59997;53.300;-6.260;2023-04-25T08:06:48;10.23;;;3.88;;
71941;SDS011;59997;53.300;-6.260;2023-04-25T08:09:14;11.23;;;3.47;;
71941;SDS011;59997;53.300;-6.260;2023-04-25T08:11:40;12.38;;;3.70;;
71941;SDS011;59997;53.300;-6.260;2023-04-25T08:14:07;10.70;;;3.20;;
71941;SDS011;59997;53.300;-6.260;2023-04-25T08:16:32;12.27;;;3.20;;
71941;SDS011;59997;53.300;-6.260;2023-04-25T08:18:59;11.00;;;3.07;;
71941;SDS011;59997;53.300;-6.260;2023-04-25T08:21:25;12.18;;;2.83;;
71941;SDS011;59997;53.300;-6.260;2023-04-25T08:23:52;8.93;;;2.85;;
71941;SDS011;59997;53.300;-6.260;2023-04-25T08:26:17;8.98;;;2.70;;
71941;SDS011;59997;53.300;-6.260;2023-04-25T08:28:43;8.33;;;2.57;;
71941;SDS011;59997;53.300;-6.260;2023-04-25T08:31:08;9.67;;;2.80;;
71941;SDS011;59997;53.300;-6.260;2023-04-25T08:33:34;11.80;;;3.10;;
71941;SDS011;59997;53.300;-6.260;2023-04-25T08:35:59;7.93;;;2.87;;
71941;SDS011;59997;53.300;-6.260;2023-04-25T08:38:25;10.10;;;2.40;;
71941;SDS011;59997;53.300;-6.260;2023-04-25T08:40:51;7.80;;;2.60;;
71941;SDS011;59997;53.300;-6.260;2023-04-25T08:43:18;9.65;;;2.50;;
71941;SDS011;59997;53.300;-6.260;2023-04-25T08:45:44;7.65;;;2.10;;
71941;SDS011;59997;53.300;-6.260;2023-04-25T08:48:11;6.57;;;1.50;;
71941;SDS011;59997;53.300;-6.260;2023-04-25T08:50:39;5.53;;;1.57;;
71941;SDS011;59997;53.300;-6.260;2023-04-25T08:53:08;9.20;;;1.70;;
71941;SDS011;59997;53.300;-6.260;2023-04-25T08:55:38;6.45;;;1.50;;
71941;SDS011;59997;53.300;-6.260;2023-04-25T08:58:06;6.82;;;1.40;;
71941;SDS011;59997;53.300;-6.260;2023-04-25T09:00:35;6.88;;;1.50;;
71941;SDS011;59997;53.300;-6.260;2023-04-25T09:03:00;5.10;;;1.70;;
71941;SDS011;59997;53.300;-6.260;2023-04-25T09:05:26;6.72;;;1.70;;
71941;SDS011;59997;53.300;-6.260;2023-04-25T09:07:53;5.07;;;1.70;;
71941;SDS011;59997;53.300;-6.260;2023-04-25T09:10:19;5.57;;;1.73;;
71941;SDS011;59997;53.300;-6.260;2023-04-25T09:12:53;7.23;;;1.80;;
71941;SDS011;59997;53.300;-6.260;2023-04-25T09:15:30;5.45;;;1.92;;
71941;SDS011;59997;53.300;-6.260;2023-04-25T09:17:57;8.10;;;2.33;;
71941;SDS011;59997;53.300;-6.260;2023-04-25T09:20:23;6.00;;;2.00;;
71941;SDS011;59997;53.300;-6.260;2023-04-25T09:22:49;6.15;;;2.08;;
71941;SDS011;59997;53.300;-6.260;2023-04-25T09:25:26;8.60;;;2.17;;
71941;SDS011;59997;53.300;-6.260;2023-04-25T09:27:52;6.45;;;2.60;;
71941;SDS011;59997;53.300;-6.260;2023-04-25T09:30:27;6.40;;;1.60;;
71941;SDS011;59997;53.300;-6.260;2023-04-25T09:32:56;7.57;;;1.20;;
71941;SDS011;59997;53.300;-6.260;2023-04-25T09:35:24;6.22;;;1.00;;
71941;SDS011;59997;53.300;-6.260;2023-04-25T09:37:51;10.63;;;1.98;;
71941;SDS011;59997;53.300;-6.260;2023-04-25T09:40:17;7.10;;;1.40;;
71941;SDS011;59997;53.300;-6.260;2023-04-25T09:42:43;7.45;;;2.03;;
71941;SDS011;59997;53.300;-6.260;2023-04-25T09:45:09;7.57;;;1.80;;
71941;SDS011;59997;53.300;-6.260;2023-04-25T09:47:38;7.67;;;1.30;;
71941;SDS011;59997;53.300;-6.260;2023-04-25T09:50:04;7.03;;;1.50;;
71941;SDS011;59997;53.300;-6.260;2023-04-25T09:52:40;7.38;;;1.90;;
71941;SDS011;59997;53.300;-6.260;2023-04-25T09:55:05;5.47;;;2.00;;
71941;SDS011;59997;53.300;-6.260;2023-04-25T09:57:31;7.43;;;1.92;;
71941;SDS011;59997;53.300;-6.260;2023-04-25T09:59:57;8.77;;;1.20;;
71941;SDS011;59997;53.300;-6.260;2023-04-25T10:02:26;5.85;;;1.30;;
71941;SDS011;59997;53.300;-6.260;2023-04-25T10:04:53;5.68;;;1.17;;
71941;SDS011;59997;53.300;-6.260;2023-04-25T10:07:20;8.60;;;1.30;;
71941;SDS011;59997;53.300;-6.260;2023-04-25T10:09:50;6.88;;;1.35;;
71941;SDS011;59997;53.300;-6.260;2023-04-25T10:12:21;7.40;;;1.65;;
71941;SDS011;59997;53.300;-6.260;2023-04-25T10:14:47;8.13;;;1.48;;
71941;SDS011;59997;53.300;-6.260;2023-04-25T10:17:12;8.43;;;1.80;;
71941;SDS011;59997;53.300;-6.260;2023-04-25T10:19:39;6.15;;;1.50;;
71941;SDS011;59997;53.300;-6.260;2023-04-25T10:22:15;6.23;;;1.80;;
71941;SDS011;59997;53.300;-6.260;2023-04-25T10:25:00;6.90;;;1.70;;
71941;SDS011;59997;53.300;-6.260;2023-04-25T10:27:28;5.38;;;1.90;;
71941;SDS011;59997;53.300;-6.260;2023-04-25T10:30:02;6.50;;;1.92;;
71941;SDS011;59997;53.300;-6.260;2023-04-25T10:32:36;6.93;;;1.58;;
71941;SDS011;59997;53.300;-6.260;2023-04-25T10:35:15;8.93;;;1.40;;
71941;SDS011;59997;53.300;-6.260;2023-04-25T10:37:57;6.60;;;1.30;;
71941;SDS011;59997;53.300;-6.260;2023-04-25T10:40:23;6.85;;;1.77;;
71941;SDS011;59997;53.300;-6.260;2023-04-25T10:42:51;8.67;;;1.90;;
71941;SDS011;59997;53.300;-6.260;2023-04-25T10:45:18;7.20;;;2.25;;
71941;SDS011;59997;53.300;-6.260;2023-04-25T10:47:45;7.28;;;2.25;;
71941;SDS011;59997;53.300;-6.260;2023-04-25T10:50:11;6.63;;;1.80;;
71941;SDS011;59997;53.300;-6.260;2023-04-25T10:52:40;7.32;;;1.67;;
71941;SDS011;59997;53.300;-6.260;2023-04-25T10:55:05;9.33;;;1.27;;
71941;SDS011;59997;53.300;-6.260;2023-04-25T10:57:32;6.22;;;1.75;;
71941;SDS011;59997;53.300;-6.260;2023-04-25T11:00:06;7.15;;;1.75;;
71941;SDS011;59997;53.300;-6.260;2023-04-25T11:02:41;7.65;;;1.08;;
71941;SDS011;59997;53.300;-6.260;2023-04-25T11:05:22;6.65;;;1.38;;
71941;SDS011;59997;53.300;-6.260;2023-04-25T11:07:55;6.23;;;1.77;;
71941;SDS011;59997;53.300;-6.260;2023-04-25T11:10:28;8.07;;;1.60;;
71941;SDS011;59997;53.300;-6.260;2023-04-25T11:12:55;5.68;;;1.85;;
71941;SDS011;59997;53.300;-6.260;2023-04-25T11:15:21;6.70;;;1.50;;
71941;SDS011;59997;53.300;-6.260;2023-04-25T11:17:46;8.93;;;1.90;;
71941;SDS011;59997;53.300;-6.260;2023-04-25T11:20:15;6.77;;;1.73;;
71941;SDS011;59997;53.300;-6.260;2023-04-25T11:22:40;5.80;;;1.70;;
71941;SDS011;59997;53.300;-6.260;2023-04-25T11:25:07;5.13;;;1.38;;
71941;SDS011;59997;53.300;-6.260;2023-04-25T11:27:33;5.70;;;1.65;;
71941;SDS011;59997;53.300;-6.260;2023-04-25T11:30:09;6.25;;;1.77;;
71941;SDS011;59997;53.300;-6.260;2023-04-25T11:32:41;6.00;;;1.70;;
71941;SDS011;59997;53.300;-6.260;2023-04-25T11:35:08;6.55;;;1.90;;
71941;SDS011;59997;53.300;-6.260;2023-04-25T11:37:34;5.85;;;1.65;;
71941;SDS011;59997;53.300;-6.260;2023-04-25T11:40:00;6.13;;;1.97;;
71941;SDS011;59997;53.300;-6.260;2023-04-25T11:42:25;7.15;;;1.63;;
71941;SDS011;59997;53.300;-6.260;2023-04-25T11:44:51;7.30;;;1.50;;
71941;SDS011;59997;53.300;-6.260;2023-04-25T11:47:17;6.50;;;1.70;;
71941;SDS011;59997;53.300;-6.260;2023-04-25T11:49:42;7.33;;;1.93;;
71941;SDS011;59997;53.300;-6.260;2023-04-25T11:52:08;6.67;;;1.80;;
71941;SDS011;59997;53.300;-6.260;2023-04-25T11:54:37;7.00;;;1.40;;
71941;SDS011;59997;53.300;-6.260;2023-04-25T11:57:03;10.05;;;5.45;;
71941;SDS011;59997;53.300;-6.260;2023-04-25T11:59:29;8.18;;;1.55;;
71941;SDS011;59997;53.300;-6.260;2023-04-25T12:01:55;6.97;;;2.23;;
71941;SDS011;59997;53.300;-6.260;2023-04-25T12:04:23;6.72;;;1.83;;
71941;SDS011;59997;53.300;-6.260;2023-04-25T12:06:50;8.50;;;1.40;;
71941;SDS011;59997;53.300;-6.260;2023-04-25T12:09:18;6.07;;;1.75;;
71941;SDS011;59997;53.300;-6.260;2023-04-25T12:11:47;6.30;;;1.33;;
71941;SDS011;59997;53.300;-6.260;2023-04-25T12:14:27;8.13;;;1.93;;
71941;SDS011;59997;53.300;-6.260;2023-04-25T12:16:57;8.90;;;1.92;;
71941;SDS011;59997;53.300;-6.260;2023-04-25T12:19:24;6.93;;;1.50;;
71941;SDS011;59997;53.300;-6.260;2023-04-25T12:21:51;5.18;;;1.30;;
71941;SDS011;59997;53.300;-6.260;2023-04-25T12:24:26;6.68;;;1.23;;
71941;SDS011;59997;53.300;-6.260;2023-04-25T12:27:02;6.43;;;1.30;;
71941;SDS011;59997;53.300;-6.260;2023-04-25T12:29:31;7.85;;;1.60;;
71941;SDS011;59997;53.300;-6.260;2023-04-25T12:31:57;7.28;;;1.52;;
71941;SDS011;59997;53.300;-6.260;2023-04-25T12:34:23;8.38;;;2.13;;
71941;SDS011;59997;53.300;-6.260;2023-04-25T12:36:50;9.50;;;1.85;;
71941;SDS011;59997;53.300;-6.260;2023-04-25T12:39:20;6.27;;;1.40;;
71941;SDS011;59997;53.300;-6.260;2023-04-25T12:41:50;4.93;;;1.10;;
71941;SDS011;59997;53.300;-6.260;2023-04-25T12:44:18;5.90;;;1.45;;
71941;SDS011;59997;53.300;-6.260;2023-04-25T12:46:44;5.47;;;1.38;;
71941;SDS011;59997;53.300;-6.260;2023-04-25T12:49:10;8.33;;;1.13;;
71941;SDS011;59997;53.300;-6.260;2023-04-25T12:51:36;7.63;;;1.75;;
71941;SDS011;59997;53.300;-6.260;2023-04-25T12:54:02;5.43;;;1.47;;
71941;SDS011;59997;53.300;-6.260;2023-04-25T12:56:29;9.32;;;1.50;;
71941;SDS011;59997;53.300;-6.260;2023-04-25T12:58:55;7.82;;;1.73;;
71941;SDS011;59997;53.300;-6.260;2023-04-25T13:01:21;7.50;;;2.00;;
71941;SDS011;59997;53.300;-6.260;2023-04-25T13:03:47;8.82;;;2.00;;
71941;SDS011;59997;53.300;-6.260;2023-04-25T13:06:13;6.97;;;1.50;;
71941;SDS011;59997;53.300;-6.260;2023-04-25T13:08:39;9.20;;;1.58;;
71941;SDS011;59997;53.300;-6.260;2023-04-25T13:11:06;8.47;;;1.80;;
71941;SDS011;59997;53.300;-6.260;2023-04-25T13:13:32;6.82;;;1.70;;
71941;SDS011;59997;53.300;-6.260;2023-04-25T13:16:00;7.35;;;1.70;;
71941;SDS011;59997;53.300;-6.260;2023-04-25T13:18:26;10.85;;;2.00;;
71941;SDS011;59997;53.300;-6.260;2023-04-25T13:20:53;12.70;;;2.15;;
71941;SDS011;59997;53.300;-6.260;2023-04-25T13:23:19;7.83;;;1.80;;
71941;SDS011;59997;53.300;-6.260;2023-04-25T13:25:47;8.02;;;1.90;;
71941;SDS011;59997;53.300;-6.260;2023-04-25T13:28:13;7.57;;;2.40;;
71941;SDS011;59997;53.300;-6.260;2023-04-25T13:30:39;9.85;;;2.20;;
71941;SDS011;59997;53.300;-6.260;2023-04-25T13:33:05;10.10;;;1.92;;
71941;SDS011;59997;53.300;-6.260;2023-04-25T13:35:31;8.40;;;2.20;;
71941;SDS011;59997;53.300;-6.260;2023-04-25T13:37:57;8.73;;;2.20;;
71941;SDS011;59997;53.300;-6.260;2023-04-25T13:40:23;10.85;;;2.60;;
71941;SDS011;59997;53.300;-6.260;2023-04-25T13:42:49;8.27;;;2.00;;
71941;SDS011;59997;53.300;-6.260;2023-04-25T13:45:16;9.30;;;2.22;;
71941;SDS011;59997;53.300;-6.260;2023-04-25T13:47:41;12.10;;;2.10;;
71941;SDS011;59997;53.300;-6.260;2023-04-25T13:50:07;7.63;;;1.83;;
71941;SDS011;59997;53.300;-6.260;2023-04-25T13:52:33;11.98;;;2.10;;
71941;SDS011;59997;53.300;-6.260;2023-04-25T13:54:58;7.83;;;1.70;;
71941;SDS011;59997;53.300;-6.260;2023-04-25T13:57:24;9.52;;;1.88;;
71941;SDS011;59997;53.300;-6.260;2023-04-25T13:59:50;8.38;;;1.98;;
71941;SDS011;59997;53.300;-6.260;2023-04-25T14:02:16;9.43;;;2.10;;
71941;SDS011;59997;53.300;-6.260;2023-04-25T14:04:42;8.15;;;2.00;;
71941;SDS011;59997;53.300;-6.260;2023-04-25T14:07:07;8.00;;;2.00;;
71941;SDS011;59997;53.300;-6.260;2023-04-25T14:09:33;10.73;;;2.47;;
71941;SDS011;59997;53.300;-6.260;2023-04-25T14:11:59;8.37;;;1.93;;
71941;SDS011;59997;53.300;-6.260;2023-04-25T14:14:25;6.30;;;1.50;;
71941;SDS011;59997;53.300;-6.260;2023-04-25T14:16:51;9.10;;;1.80;;
71941;SDS011;59997;53.300;-6.260;2023-04-25T14:19:18;7.35;;;2.10;;
71941;SDS011;59997;53.300;-6.260;2023-04-25T14:21:44;7.03;;;1.67;;
71941;SDS011;59997;53.300;-6.260;2023-04-25T14:24:10;6.43;;;1.70;;
71941;SDS011;59997;53.300;-6.260;2023-04-25T14:26:38;8.48;;;1.80;;
71941;SDS011;59997;53.300;-6.260;2023-04-25T14:29:04;6.85;;;2.38;;